This is the latest recevied weather packets stored in our database for station/object NW1E. If no packets are shown the sender has not sent any weather packets the latest 10 day(s).
| Time | Temp. | Humidity | Pressure | Rain* | Wind** | Luminosity | Snow |
|---|---|---|---|---|---|---|---|
| 1777536016 | 21.11° C | 93% | 1012.6 hPa | 0 mm | - | 0 W/m² | - |
| 1777534351 | 21.11° C | 93% | 1012.4 hPa | 0 mm | - | 0 W/m² | - |
| 1777531040 | 21.67° C | 93% | 1012.8 hPa | 0 mm | - | 0 W/m² | - |
| 1777529234 | 21.67° C | 93% | 1013.1 hPa | 0 mm | - | 0 W/m² | - |
| 1777523825 | 22.78° C | 91% | 1013.7 hPa | 0 mm | - | 0 W/m² | - |
| 1777523525 | 23.33° C | 91% | 1013.8 hPa | 0 mm | - | 0 W/m² | - |
| 1777523224 | 23.33° C | 90% | 1013.9 hPa | 0 mm | - | 0 W/m² | - |
| 1777520522 | 23.89° C | 90% | 1013.7 hPa | 0 mm | - | 0 W/m² | - |
| 1777518103 | 24.44° C | 89% | 1013.7 hPa | 0 mm | - | 0 W/m² | - |
| 1777517501 | 24.44° C | 89% | 1013.8 hPa | 0 mm | - | 0 W/m² | - |
| 1777517197 | 24.44° C | 88% | 1013.8 hPa | 0 mm | - | 0 W/m² | - |
| 1777516595 | 24.44° C | 88% | 1013.9 hPa | 0 mm | - | 0 W/m² | - |
| 1777511182 | 25.56° C | 81% | 1012.9 hPa | 0 mm | - | 0 W/m² | - |
| 1777510280 | 25.56° C | 78% | 1012.6 hPa | 0 mm | - | 0 W/m² | - |
| 1777508181 | 26.11° C | 74% | 1012.5 hPa | 0 mm | - | 0 W/m² | - |
| 1777506977 | 26.67° C | 73% | 1012.4 hPa | 0 mm | - | 7 W/m² | - |
| 1777506372 | 26.67° C | 73% | 1012.2 hPa | 0 mm | - | 14 W/m² | - |
| 1777503965 | 27.78° C | 69% | 1012.1 hPa | 0 mm | - | 35 W/m² | - |
| 1777500952 | 28.33° C | 67% | 1012.4 hPa | 0 mm | - | 60 W/m² | - |
| 1777500534 | 28.33° C | 68% | 1012.3 hPa | 0 mm | - | 318 W/m² | - |
| 1777499033 | 29.44° C | 65% | 1012.7 hPa | 0 mm | - | 347 W/m² | - |
| 1777497638 | 29.44° C | 62% | 1012.6 hPa | 0 mm | - | 401 W/m² | - |
| 1777495231 | 30.56° C | 58% | 1013 hPa | 0 mm | - | 598 W/m² | - |
| 1777494632 | 30.56° C | 59% | 1013.1 hPa | 0 mm | - | 607 W/m² | - |
| 1777494527 | 30.56° C | 59% | 1013 hPa | 0 mm | - | 605 W/m² | - |
* Rain latest hour (hover to see other rain measurements)
** Current wind speed in m/s (hover to see current wind gust speed)